< < Back
Terminal Aerodrome Forecast


Current Version              Previous Versions:   1  2  3  4  5  6  7  8  9  

Terminal Aerodrome Forecast

869
FTUS44 KHUN 271724
TAFHSV
TAF
KHSV 271724Z 2718/2818 17011G20KT P6SM SCT060 SCT250
     FM280100 15007KT P6SM FEW070 BKN150
     FM280600 14005KT P6SM BKN060 BKN120
     FM281200 18008KT P6SM VCTS BKN050CB BKN150=

Latest METAR

439
SAUS80 KWBC 271800 RRA
MTRHSV
METAR KHSV 271753Z 18014G21KT 10SM SCT050 SCT250 32/16 A3003 RMK AO2
SLP161 T03220156 10322 20211 58011


USA.gov is the U.S. government's official web portal to all federal, state and local government web resources and services.